createdAt,value
2018-11-04T00:00:03.891Z,28.77
2018-11-04T00:02:32.721Z,27.90
2018-11-04T00:05:01.560Z,28.30
2018-11-04T00:07:30.437Z,27.87
2018-11-04T00:09:59.269Z,28.20
2018-11-04T00:12:28.161Z,27.97
2018-11-04T00:14:57.034Z,27.07
2018-11-04T00:17:25.924Z,28.20
2018-11-04T00:19:54.800Z,26.13
2018-11-04T00:22:23.771Z,27.90
2018-11-04T00:24:52.641Z,27.80
2018-11-04T00:27:21.532Z,26.60
2018-11-04T00:29:50.501Z,27.70
2018-11-04T00:32:19.427Z,28.93
2018-11-04T00:34:48.286Z,28.73
2018-11-04T00:37:17.124Z,28.03
2018-11-04T00:39:45.981Z,26.83
2018-11-04T00:42:14.789Z,28.53
2018-11-04T00:44:43.644Z,26.67
2018-11-04T00:47:12.474Z,25.77
2018-11-04T00:49:41.313Z,25.97
2018-11-04T00:52:10.176Z,26.93
2018-11-04T00:54:39.021Z,27.30
2018-11-04T00:57:07.913Z,26.80
2018-11-04T00:59:36.813Z,29.90
2018-11-04T01:02:05.706Z,28.27
2018-11-04T01:04:34.560Z,28.00
2018-11-04T01:07:03.419Z,26.40
2018-11-04T01:09:32.398Z,27.47
2018-11-04T01:12:01.197Z,26.50
2018-11-04T01:14:30.058Z,25.40
2018-11-04T01:16:58.904Z,23.20
2018-11-04T01:19:27.826Z,25.13
2018-11-04T01:21:56.611Z,24.57
2018-11-04T01:24:25.475Z,24.10
2018-11-04T01:26:54.373Z,24.97
2018-11-04T01:29:23.193Z,24.17
2018-11-04T01:31:51.999Z,24.53
2018-11-04T01:34:20.829Z,25.80
2018-11-04T01:36:49.672Z,24.90
2018-11-04T01:39:18.537Z,23.53
2018-11-04T01:41:47.385Z,23.90
2018-11-04T01:44:16.219Z,24.37
2018-11-04T01:46:45.089Z,22.90
2018-11-04T01:49:13.911Z,24.57
2018-11-04T01:51:42.829Z,23.87
2018-11-04T01:54:11.657Z,23.37
2018-11-04T01:56:40.478Z,23.37
2018-11-04T01:59:09.267Z,23.90
2018-11-04T02:01:38.133Z,22.93
2018-11-04T02:04:07.233Z,25.97
2018-11-04T02:06:36.143Z,25.50
2018-11-04T02:09:07.103Z,25.33
2018-11-04T02:11:35.997Z,23.73
2018-11-04T02:14:04.942Z,24.93
2018-11-04T02:16:33.755Z,25.47
2018-11-04T02:19:02.673Z,23.00
2018-11-04T02:21:31.471Z,24.20
2018-11-04T02:24:00.310Z,24.20
2018-11-04T02:26:29.325Z,24.37
2018-11-04T02:28:58.147Z,25.80
2018-11-04T02:31:27.072Z,23.90
2018-11-04T02:33:55.947Z,24.03
2018-11-04T02:36:24.758Z,23.20
2018-11-04T02:38:53.626Z,23.63
2018-11-04T02:41:22.486Z,23.60
2018-11-04T02:43:51.319Z,23.43
2018-11-04T02:46:20.116Z,24.47
2018-11-04T02:48:48.968Z,24.30
2018-11-04T02:51:17.757Z,24.57
2018-11-04T02:53:46.579Z,25.03
2018-11-04T02:56:15.378Z,26.27
2018-11-04T02:58:44.263Z,26.37
2018-11-04T03:01:13.105Z,24.50
2018-11-04T03:03:42.509Z,25.23
2018-11-04T03:06:11.348Z,24.50
2018-11-04T03:08:40.215Z,26.47
2018-11-04T03:11:09.010Z,28.33
2018-11-04T03:13:37.797Z,27.90
2018-11-04T03:16:06.752Z,25.80
2018-11-04T03:18:35.592Z,27.43
2018-11-04T03:21:04.485Z,27.40
2018-11-04T03:23:33.344Z,27.07
2018-11-04T03:26:02.233Z,27.30
2018-11-04T03:28:31.082Z,27.67
2018-11-04T03:30:59.871Z,27.50
2018-11-04T03:33:28.761Z,26.90
2018-11-04T03:35:57.609Z,28.67
2018-11-04T03:38:26.404Z,29.63
2018-11-04T03:40:55.270Z,28.07
2018-11-04T03:43:24.123Z,28.67
2018-11-04T03:45:52.971Z,27.60
2018-11-04T03:48:21.769Z,30.03
2018-11-04T03:50:50.662Z,33.07
2018-11-04T03:53:19.515Z,30.33
2018-11-04T03:55:48.319Z,30.47
2018-11-04T03:58:17.181Z,30.87
2018-11-04T04:00:46.004Z,28.57
2018-11-04T04:03:14.840Z,30.43
2018-11-04T04:05:43.641Z,29.27
2018-11-04T04:08:12.574Z,30.60
2018-11-04T04:10:41.354Z,31.50
2018-11-04T04:13:10.175Z,28.83
2018-11-04T04:15:38.981Z,30.13
2018-11-04T04:18:07.815Z,28.33
2018-11-04T04:20:36.777Z,29.13
2018-11-04T04:23:05.738Z,28.60
2018-11-04T04:25:34.543Z,28.43
2018-11-04T04:28:03.327Z,30.13
2018-11-04T04:30:32.156Z,29.30
2018-11-04T04:33:00.937Z,29.20
2018-11-04T04:35:29.765Z,31.23
2018-11-04T04:37:58.603Z,33.90
2018-11-04T04:40:27.502Z,32.43
2018-11-04T04:42:56.299Z,31.70
2018-11-04T04:45:25.093Z,33.40
2018-11-04T04:47:53.936Z,30.70
2018-11-04T04:50:22.773Z,32.63
2018-11-04T04:52:51.574Z,32.87
2018-11-04T04:55:20.415Z,34.07
2018-11-04T04:57:49.226Z,33.80
2018-11-04T05:00:18.071Z,32.30
2018-11-04T05:02:46.869Z,33.17
2018-11-04T05:05:15.762Z,31.30
2018-11-04T05:07:44.558Z,32.23
2018-11-04T05:10:13.421Z,33.63
2018-11-04T05:12:42.290Z,32.40
2018-11-04T05:15:11.166Z,32.90
2018-11-04T05:17:40.028Z,31.60
2018-11-04T05:20:08.917Z,32.33
2018-11-04T05:22:38.111Z,30.97
2018-11-04T05:25:07.010Z,29.60
2018-11-04T05:27:35.842Z,31.07
2018-11-04T05:30:05.603Z,32.13
2018-11-04T05:32:34.433Z,27.43
2018-11-04T05:35:03.225Z,32.47
2018-11-04T05:37:32.121Z,32.40
2018-11-04T05:40:00.911Z,32.23
2018-11-04T05:42:29.740Z,31.83
2018-11-04T05:44:58.605Z,32.23
2018-11-04T05:47:27.428Z,31.10
2018-11-04T05:49:56.284Z,29.70
2018-11-04T05:52:25.125Z,31.27
2018-11-04T05:54:53.968Z,31.10
2018-11-04T05:57:22.802Z,31.63
2018-11-04T05:59:51.561Z,31.63
2018-11-04T06:02:20.407Z,31.93
2018-11-04T06:04:49.213Z,30.67
2018-11-04T06:07:18.083Z,32.07
2018-11-04T06:09:46.916Z,31.80
2018-11-04T06:12:15.789Z,33.03
2018-11-04T06:14:44.646Z,31.43
2018-11-04T06:17:13.494Z,33.33
2018-11-04T06:19:42.348Z,31.13
2018-11-04T06:22:11.150Z,31.43
2018-11-04T06:24:39.971Z,31.53
2018-11-04T06:27:08.804Z,31.70
2018-11-04T06:29:37.605Z,30.00
2018-11-04T06:32:06.495Z,30.93
2018-11-04T06:34:35.377Z,31.73
2018-11-04T06:37:04.156Z,28.73
2018-11-04T06:39:33.007Z,30.77
2018-11-04T06:42:01.882Z,30.47
2018-11-04T06:44:30.745Z,29.97
2018-11-04T06:46:59.589Z,32.73
2018-11-04T06:49:28.439Z,33.20
2018-11-04T06:51:57.285Z,32.37
2018-11-04T06:54:26.208Z,32.80
2018-11-04T06:56:55.004Z,30.20
2018-11-04T06:59:23.904Z,32.23
2018-11-04T07:01:52.705Z,30.33
2018-11-04T07:04:23.908Z,32.87
2018-11-04T07:06:52.724Z,30.53
2018-11-04T07:09:21.599Z,33.10
2018-11-04T07:11:50.764Z,29.97
2018-11-04T07:14:20.203Z,32.90
2018-11-04T07:16:49.017Z,32.07
2018-11-04T07:19:17.927Z,31.43
2018-11-04T07:21:46.733Z,31.07
2018-11-04T07:24:15.549Z,33.17
2018-11-04T07:26:44.345Z,30.70
2018-11-04T07:29:13.188Z,31.70
2018-11-04T07:31:42.019Z,29.63
2018-11-04T07:34:10.839Z,31.60
2018-11-04T07:36:39.673Z,30.87
2018-11-04T07:39:10.399Z,31.73
2018-11-04T07:41:39.262Z,31.30
2018-11-04T07:44:08.109Z,29.07
2018-11-04T07:46:36.958Z,32.13
2018-11-04T07:49:06.102Z,29.77
2018-11-04T07:51:35.149Z,30.33
2018-11-04T07:54:04.360Z,32.63
2018-11-04T07:56:34.090Z,30.80
2018-11-04T07:59:03.008Z,32.30
2018-11-04T08:01:31.930Z,33.00
2018-11-04T08:04:00.828Z,30.77
2018-11-04T08:06:33.453Z,30.27
2018-11-04T08:09:02.500Z,31.37
2018-11-04T08:11:31.352Z,32.80
2018-11-04T08:14:00.188Z,32.87
2018-11-04T08:16:29.178Z,30.87
2018-11-04T08:19:15.556Z,31.23
2018-11-04T08:34:10.362Z,32.50
2018-11-04T08:36:39.221Z,32.80
2018-11-04T08:39:09.237Z,32.53
2018-11-04T08:41:38.311Z,34.10
2018-11-04T08:44:07.126Z,32.87
2018-11-04T08:46:36.177Z,33.17
2018-11-04T08:49:05.400Z,32.30
2018-11-04T08:51:35.053Z,33.70
2018-11-04T08:54:03.965Z,33.47
2018-11-04T08:56:32.827Z,31.97
2018-11-04T08:59:01.691Z,32.97
2018-11-04T09:01:30.600Z,32.77
2018-11-04T09:03:59.399Z,32.27
2018-11-04T09:06:28.372Z,32.63
2018-11-04T09:08:57.265Z,33.70
2018-11-04T09:11:26.123Z,31.60
2018-11-04T09:13:55.091Z,31.90
2018-11-04T09:16:23.961Z,30.87
2018-11-04T09:18:52.787Z,31.67
2018-11-04T09:21:21.636Z,32.37
2018-11-04T09:23:51.349Z,32.87
2018-11-04T09:26:20.305Z,32.70
2018-11-04T09:28:49.145Z,31.20
2018-11-04T09:31:17.967Z,33.13
2018-11-04T09:33:46.838Z,31.20
2018-11-04T09:36:15.841Z,30.27
2018-11-04T09:38:44.681Z,31.50
2018-11-04T09:41:13.549Z,30.07
2018-11-04T09:43:42.442Z,30.03
2018-11-04T09:46:11.330Z,28.70
2018-11-04T09:48:40.146Z,30.27
2018-11-04T09:51:08.985Z,31.60
2018-11-04T09:53:37.863Z,30.40
2018-11-04T09:56:06.780Z,29.67
2018-11-04T09:58:35.871Z,29.20
2018-11-04T10:01:04.796Z,31.17
2018-11-04T10:03:33.634Z,32.30
2018-11-04T10:06:02.461Z,32.17
2018-11-04T10:08:31.349Z,32.13
2018-11-04T10:11:00.317Z,30.43
2018-11-04T10:13:29.172Z,29.10
2018-11-04T10:15:58.094Z,28.23
2018-11-04T10:18:27.080Z,30.80
2018-11-04T10:20:56.273Z,29.80
2018-11-04T10:23:24.942Z,30.60
2018-11-04T10:25:53.869Z,28.07
2018-11-04T10:28:22.730Z,31.30
2018-11-04T10:30:51.616Z,29.20
2018-11-04T10:33:20.503Z,31.37
2018-11-04T10:35:49.296Z,30.13
2018-11-04T10:38:19.201Z,30.37
2018-11-04T10:40:51.012Z,28.83
2018-11-04T10:43:20.151Z,29.43
2018-11-04T10:45:48.974Z,29.07
2018-11-04T10:48:18.036Z,28.20
2018-11-04T10:50:46.988Z,30.40
2018-11-04T10:53:15.921Z,30.03
2018-11-04T10:55:45.691Z,28.77
2018-11-04T10:58:14.690Z,28.30
2018-11-04T11:00:48.981Z,28.43
2018-11-04T11:03:17.925Z,28.83
2018-11-04T11:05:46.892Z,30.50
2018-11-04T11:08:15.697Z,29.43
2018-11-04T11:10:44.537Z,28.97
2018-11-04T11:13:14.003Z,31.07
2018-11-04T11:15:42.866Z,27.97
2018-11-04T11:18:11.683Z,28.00
2018-11-04T11:20:40.525Z,29.97
2018-11-04T11:23:09.470Z,29.37
2018-11-04T11:25:38.239Z,28.30
2018-11-04T11:28:07.178Z,28.90
2018-11-04T11:30:36.098Z,29.93
2018-11-04T11:33:05.212Z,31.50
2018-11-04T11:35:34.122Z,32.00
2018-11-04T11:38:03.003Z,29.90
2018-11-04T11:40:31.879Z,30.07
2018-11-04T11:43:00.722Z,29.17
2018-11-04T11:45:29.559Z,31.33
2018-11-04T11:47:58.468Z,28.37
2018-11-04T11:50:27.344Z,30.07
2018-11-04T11:52:56.262Z,30.27
2018-11-04T11:55:25.146Z,29.60
2018-11-04T11:57:53.975Z,30.93
2018-11-04T12:00:23.569Z,30.63
2018-11-04T12:02:52.372Z,30.40
2018-11-04T12:05:21.225Z,31.03
2018-11-04T12:07:50.067Z,30.27
2018-11-04T12:10:18.934Z,29.87
2018-11-04T12:12:48.682Z,29.57
2018-11-04T12:15:17.510Z,29.77
2018-11-04T12:17:46.461Z,30.13
2018-11-04T12:20:15.280Z,29.13
2018-11-04T12:22:44.191Z,31.20
2018-11-04T12:25:13.746Z,31.33
2018-11-04T12:27:42.897Z,31.33
2018-11-04T12:30:14.196Z,28.93
2018-11-04T12:32:43.100Z,30.83
2018-11-04T12:35:13.053Z,30.60
2018-11-04T12:37:42.230Z,31.17
2018-11-04T12:40:12.465Z,32.80
2018-11-04T12:42:41.321Z,30.37
2018-11-04T12:45:11.468Z,30.93
2018-11-04T12:47:40.382Z,31.37
2018-11-04T12:50:10.190Z,31.60
2018-11-04T12:52:39.037Z,32.87
2018-11-04T12:55:08.487Z,31.23
2018-11-04T12:57:37.378Z,33.87
2018-11-04T13:00:11.710Z,32.57
2018-11-04T13:02:40.704Z,33.70
2018-11-04T13:05:10.540Z,33.70
2018-11-04T13:07:39.500Z,32.90
2018-11-04T13:10:10.259Z,34.83
2018-11-04T13:12:39.523Z,32.80
2018-11-04T13:15:09.881Z,33.33
2018-11-04T13:17:38.830Z,32.03
2018-11-04T13:20:07.793Z,34.67
2018-11-04T13:22:36.668Z,34.10
2018-11-04T13:25:06.085Z,34.17
2018-11-04T13:27:34.926Z,34.87
2018-11-04T13:30:03.915Z,34.30
2018-11-04T13:32:32.772Z,35.03
2018-11-04T13:35:01.662Z,34.50
2018-11-04T13:37:30.513Z,35.07
2018-11-04T13:39:59.338Z,34.83
2018-11-04T13:42:28.277Z,36.93
2018-11-04T13:44:57.152Z,36.83
2018-11-04T13:47:26.008Z,37.43
2018-11-04T13:49:54.849Z,37.40
2018-11-04T13:52:23.686Z,39.17
2018-11-04T13:54:52.718Z,38.23
2018-11-04T13:57:21.611Z,35.23
2018-11-04T13:59:50.450Z,36.47
2018-11-04T14:02:19.352Z,36.03
2018-11-04T14:04:48.359Z,36.63
2018-11-04T14:07:17.215Z,37.80
2018-11-04T14:09:46.081Z,38.67
2018-11-04T14:12:15.052Z,37.70
2018-11-04T14:14:44.030Z,35.13
2018-11-04T14:17:12.917Z,36.57
2018-11-04T14:19:41.766Z,38.27
2018-11-04T14:22:10.696Z,40.17
2018-11-04T14:24:39.512Z,41.67
2018-11-04T14:27:08.386Z,37.53
2018-11-04T14:29:37.283Z,35.93
2018-11-04T14:32:06.922Z,39.77
2018-11-04T14:34:35.745Z,36.70
2018-11-04T14:37:04.614Z,39.23
2018-11-04T14:39:33.451Z,39.93
2018-11-04T14:42:02.491Z,40.83
2018-11-04T14:44:31.309Z,39.57
2018-11-04T14:47:00.149Z,37.50
2018-11-04T14:49:28.990Z,40.93
2018-11-04T14:51:57.823Z,39.80
2018-11-04T14:54:26.701Z,39.43
2018-11-04T14:56:55.626Z,36.83
2018-11-04T14:59:24.493Z,41.10
2018-11-04T15:01:53.373Z,37.20
2018-11-04T15:04:22.297Z,40.83
2018-11-04T15:06:51.115Z,37.00
2018-11-04T15:09:19.952Z,41.37
2018-11-04T15:11:48.833Z,40.13
2018-11-04T15:14:17.660Z,39.30
2018-11-04T15:16:46.539Z,40.60
2018-11-04T15:19:15.395Z,40.47
2018-11-04T15:21:45.079Z,41.17
2018-11-04T15:24:13.959Z,41.90
2018-11-04T15:26:42.824Z,42.67
2018-11-04T15:29:11.721Z,42.37
2018-11-04T15:31:40.556Z,40.83
2018-11-04T15:34:09.446Z,43.40
2018-11-04T15:36:38.368Z,42.50
2018-11-04T15:39:09.348Z,43.37
2018-11-04T15:41:38.308Z,43.47
2018-11-04T15:44:07.272Z,43.17
2018-11-04T15:46:36.360Z,41.70
2018-11-04T15:49:05.587Z,43.53
2018-11-04T15:51:34.463Z,41.67
2018-11-04T15:54:03.411Z,42.67
2018-11-04T15:56:32.264Z,43.47
2018-11-04T15:59:01.189Z,40.93
2018-11-04T16:01:30.123Z,43.77
2018-11-04T16:03:59.140Z,40.70
2018-11-04T16:06:28.077Z,39.60
2018-11-04T16:08:57.196Z,42.03
2018-11-04T16:11:26.103Z,43.20
2018-11-04T16:13:55.102Z,44.33
2018-11-04T16:16:24.066Z,42.10
2018-11-04T16:18:53.991Z,45.10
2018-11-04T16:21:23.004Z,42.83
2018-11-04T16:23:51.847Z,44.93
2018-11-04T16:26:20.775Z,43.90
2018-11-04T16:28:49.625Z,44.70
2018-11-04T16:31:18.511Z,45.97
2018-11-04T16:33:47.423Z,42.30
2018-11-04T16:36:16.289Z,45.30
2018-11-04T16:38:45.159Z,42.73
2018-11-04T16:41:14.017Z,43.70
2018-11-04T16:43:42.929Z,45.10
2018-11-04T16:46:11.751Z,44.97
2018-11-04T16:48:40.749Z,44.10
2018-11-04T16:51:09.576Z,44.87
2018-11-04T16:53:38.530Z,46.30
2018-11-04T16:56:07.394Z,43.73
2018-11-04T16:58:36.293Z,44.27
2018-11-04T17:01:05.502Z,44.10
2018-11-04T17:03:34.396Z,43.53
2018-11-04T17:06:03.259Z,43.27
2018-11-04T17:08:32.161Z,45.33
2018-11-04T17:11:01.083Z,46.77
2018-11-04T17:13:30.984Z,43.77
2018-11-04T17:15:59.858Z,46.83
2018-11-04T17:18:28.712Z,46.17
2018-11-04T17:20:57.569Z,40.67
2018-11-04T17:23:27.089Z,44.13
2018-11-04T17:25:56.017Z,44.47
2018-11-04T17:28:25.023Z,43.43
2018-11-04T17:30:53.961Z,44.10
2018-11-04T17:33:23.764Z,44.67
2018-11-04T17:35:52.656Z,45.13
2018-11-04T17:38:21.573Z,44.47
2018-11-04T17:40:50.447Z,42.30
2018-11-04T17:43:19.343Z,44.33
2018-11-04T17:45:50.188Z,43.10
2018-11-04T17:48:19.104Z,43.80
2018-11-04T17:50:48.602Z,43.73
2018-11-04T17:53:17.845Z,42.80
2018-11-04T17:55:46.898Z,41.87
2018-11-04T17:58:15.887Z,41.70
2018-11-04T18:00:44.729Z,43.13
2018-11-04T18:03:13.663Z,43.10
2018-11-04T18:05:42.669Z,40.93
2018-11-04T18:08:11.518Z,43.10
2018-11-04T18:10:40.818Z,41.27
2018-11-04T18:13:09.638Z,40.93
2018-11-04T18:15:38.491Z,39.63
2018-11-04T18:18:07.317Z,41.57
2018-11-04T18:20:36.195Z,40.77
2018-11-04T18:23:05.252Z,42.37
2018-11-04T18:25:34.124Z,38.43
2018-11-04T18:28:02.947Z,40.37
2018-11-04T18:30:31.779Z,38.17
2018-11-04T18:33:00.749Z,39.57
2018-11-04T18:35:29.607Z,40.20
2018-11-04T18:37:58.494Z,39.23
2018-11-04T18:40:27.542Z,38.90
2018-11-04T18:42:56.527Z,39.07
2018-11-04T18:45:26.043Z,36.83
2018-11-04T18:47:54.904Z,40.10
2018-11-04T18:50:23.737Z,39.63
2018-11-04T18:52:52.942Z,36.70
2018-11-04T18:55:21.722Z,38.33
2018-11-04T18:57:50.612Z,38.03
2018-11-04T19:00:20.373Z,38.73
2018-11-04T19:02:49.718Z,38.77
2018-11-04T19:05:18.732Z,38.37
2018-11-04T19:07:47.633Z,38.27
2018-11-04T19:10:18.551Z,36.80
2018-11-04T19:12:47.512Z,36.57
2018-11-04T19:15:16.992Z,37.97
2018-11-04T19:17:45.829Z,35.80
2018-11-04T19:20:15.375Z,35.57
2018-11-04T19:22:44.972Z,36.40
2018-11-04T19:25:15.123Z,35.97
2018-11-04T19:27:43.956Z,35.83
2018-11-04T19:30:15.018Z,35.63
2018-11-04T19:32:44.747Z,34.67
2018-11-04T19:35:14.588Z,34.93
2018-11-04T19:37:43.454Z,33.37
2018-11-04T19:40:14.267Z,34.50
2018-11-04T19:42:43.305Z,34.07
2018-11-04T19:45:12.059Z,34.00
2018-11-04T19:47:41.313Z,35.40
2018-11-04T19:50:11.798Z,32.67
2018-11-04T19:52:41.111Z,32.87
2018-11-04T19:55:10.647Z,36.03
2018-11-04T19:57:39.661Z,33.47
2018-11-04T20:00:10.162Z,33.57
2018-11-04T20:02:39.362Z,37.07
2018-11-04T20:05:09.712Z,34.70
2018-11-04T20:07:38.664Z,33.57
2018-11-04T20:10:12.440Z,34.23
2018-11-04T20:12:46.855Z,35.53
2018-11-04T20:15:16.006Z,34.33
2018-11-04T20:17:45.455Z,33.50
2018-11-04T20:20:23.073Z,34.33
2018-11-04T20:22:52.115Z,33.30
2018-11-04T20:25:26.471Z,33.13
2018-11-04T20:27:56.173Z,33.80
2018-11-04T20:30:25.035Z,33.57
2018-11-04T20:32:59.261Z,33.60
2018-11-04T20:35:28.188Z,32.97
2018-11-04T20:37:57.107Z,32.97
2018-11-04T20:40:31.473Z,32.87
2018-11-04T20:43:00.402Z,32.63
2018-11-04T20:45:29.373Z,32.83
2018-11-04T20:48:03.641Z,31.70
2018-11-04T20:50:37.877Z,32.07
2018-11-04T20:53:06.700Z,33.10
2018-11-04T20:55:41.072Z,31.43
2018-11-04T20:58:10.037Z,31.00
2018-11-04T21:00:39.020Z,32.63
2018-11-04T21:03:07.911Z,32.90
2018-11-04T21:05:36.772Z,30.50
2018-11-04T21:08:06.260Z,32.70
2018-11-04T21:10:35.317Z,31.37
2018-11-04T21:13:04.317Z,32.20
2018-11-04T21:15:33.184Z,33.37
2018-11-04T21:18:01.981Z,30.77
2018-11-04T21:20:31.014Z,31.03
2018-11-04T21:22:59.855Z,30.57
2018-11-04T21:25:28.900Z,30.83
2018-11-04T21:27:57.674Z,32.67
2018-11-04T21:30:26.784Z,30.53
2018-11-04T21:32:55.614Z,30.70
2018-11-04T21:35:24.495Z,31.57
2018-11-04T21:37:53.469Z,31.60
2018-11-04T21:40:22.227Z,31.97
2018-11-04T21:42:51.287Z,31.30
2018-11-04T21:45:20.010Z,31.67
2018-11-04T21:47:48.810Z,31.27
2018-11-04T21:50:17.699Z,31.97
2018-11-04T21:52:46.583Z,31.73
2018-11-04T21:55:15.557Z,29.93
2018-11-04T21:57:44.497Z,31.87
2018-11-04T22:00:14.640Z,32.00
2018-11-04T22:02:43.681Z,29.97
2018-11-04T22:05:12.759Z,31.63
2018-11-04T22:07:42.695Z,31.57
2018-11-04T22:10:13.650Z,31.43
2018-11-04T22:12:42.935Z,30.77
2018-11-04T22:15:12.084Z,32.53
2018-11-04T22:17:41.645Z,30.70
2018-11-04T22:20:12.407Z,31.00
2018-11-04T22:22:41.341Z,30.37
2018-11-04T22:25:11.103Z,30.13
2018-11-04T22:27:39.994Z,33.40
2018-11-04T22:30:10.128Z,32.03
2018-11-04T22:32:39.303Z,32.50
2018-11-04T22:35:09.550Z,33.20
2018-11-04T22:37:38.699Z,30.10
2018-11-04T22:40:08.713Z,31.43
2018-11-04T22:42:37.934Z,30.77
2018-11-04T22:45:07.867Z,31.03
2018-11-04T22:47:36.751Z,31.43
2018-11-04T22:50:08.061Z,33.43
2018-11-04T22:52:37.012Z,33.30
2018-11-04T22:55:05.842Z,33.53
2018-11-04T22:57:34.706Z,33.77
2018-11-04T23:00:03.604Z,32.37
2018-11-04T23:02:32.444Z,32.40
2018-11-04T23:05:06.805Z,31.17
2018-11-04T23:07:35.589Z,33.77
2018-11-04T23:10:05.140Z,32.90
2018-11-04T23:12:34.061Z,33.63
2018-11-04T23:15:02.924Z,33.20
2018-11-04T23:17:31.751Z,32.93
2018-11-04T23:20:00.613Z,32.83
2018-11-04T23:22:29.446Z,34.20
2018-11-04T23:24:58.387Z,34.93
2018-11-04T23:27:27.251Z,33.37
2018-11-04T23:29:56.089Z,33.47
2018-11-04T23:32:24.904Z,35.93
2018-11-04T23:34:53.777Z,34.97
2018-11-04T23:37:22.635Z,33.57
2018-11-04T23:39:51.501Z,33.30
2018-11-04T23:42:20.315Z,34.67
2018-11-04T23:44:49.203Z,34.93
2018-11-04T23:47:18.049Z,35.83
2018-11-04T23:49:46.909Z,38.00
2018-11-04T23:52:15.731Z,34.73
2018-11-04T23:54:44.594Z,32.97
2018-11-04T23:57:13.503Z,36.50
2018-11-04T23:59:42.473Z,35.10
